Flight Track Log - Related Links

Times and Time Zones

All times are in EDT time to prevent confusion due to time zone crossing. See the N273SK flight status page for this flight to view local times or setup timezone preferences in your user account.

Time Position Orientation Groundspeed Altitude Reporting Facility
EDT Latitude Longitude Course Direction KTS MPH feet Rate Location/Type
Tue 07:27:09 AM 40.7667 -73.8500 131° Southeast 159 183 1,100  Level New York TRACON
Tue 07:28:09 AM 40.7333 -73.8000 131° Southeast 216 249 3,300 2,200 Climbing New York TRACON
Tue 07:29:09 AM 40.7833 -73.8000 360° North 242 278 5,500 2,200 Climbing New York TRACON
Tue 07:30:09 AM 40.8500 -73.8500 330° Northwest 264 304 7,700 2,300 Climbing New York TRACON
Tue 07:31:09 AM 40.8833 -73.9333 298° West 272 313 10,100 2,100 Climbing New York TRACON
Tue 07:32:09 AM 40.9000 -74.0333 282° West 281 323 11,900 1,700 Climbing New York TRACON
Tue 07:33:09 AM 40.9000 -74.1500 270° West 309 356 13,500 1,650 Climbing New York TRACON
Tue 07:34:09 AM 40.9000 -74.2500 270° West 323 372 15,200 1,750 Climbing New York TRACON
Tue 07:35:09 AM 40.9000 -74.3667 270° West 322 371 17,000 1,310 Climbing New York TRACON
Tue 07:35:36 AM 40.9089 -74.4364 280° West 332 382 17,100  Climbing New York Center
Tue 07:36:34 AM 40.9097 -74.5436 271° West 327 376 17,000 -50 Descending New York Center
Tue 07:37:35 AM 40.9103 -74.6561 270° West 316 364 17,000  Level New York Center
Tue 07:38:36 AM 40.9125 -74.7717 271° West 313 360 17,000  Level New York Center
Tue 07:39:36 AM 40.9156 -74.8706 272° West 328 377 17,000 700 Level New York Center
Tue 07:40:36 AM 40.8994 -75.0261 262° West 357 411 18,400 1,576 Climbing New York Center
Tue 07:41:34 AM 40.8764 -75.1483 256° West 357 411 20,100 1,736 Climbing New York Center
Tue 07:42:37 AM 40.8533 -75.2619 255° West 357 411 21,900 1,800 Climbing New York Center
Tue 07:43:34 AM 40.8319 -75.3814 257° West 352 405 23,700 1,692 Climbing New York Center
Tue 07:44:34 AM 40.8064 -75.5003 254° West 346 398 25,200 1,438 Climbing New York Center
Tue 07:45:35 AM 40.7850 -75.6194 257° West 341 392 26,600 1,388 Climbing New York Center
Tue 07:46:35 AM 40.7633 -75.7411 257° West 341 392 28,000 1,190 Climbing New York Center
Tue 07:47:36 AM 40.7394 -75.8625 255° West 341 392 29,000 496 Climbing New York Center
Tue 07:48:36 AM 40.7150 -75.9922 256° West 353 406 29,000  Level New York Center
Tue 07:49:36 AM 40.6861 -76.1242 254° West 367 422 29,000  Level New York Center
Tue 07:50:34 AM 40.6694 -76.2625 261° West 382 440 29,000  Level New York Center
Tue 07:51:36 AM 40.6864 -76.3869 280° West 365 420 29,000 344 Level New York Center
Tue 07:52:36 AM 40.7053 -76.5144 281° West 353 406 29,700 508 Climbing New York Center
Tue 07:53:34 AM 40.7222 -76.6364 280° West 346 398 30,000 151 Climbing New York Center
Tue 07:54:35 AM 40.7428 -76.7669 282° West 341 392 30,000  Level New York Center
Tue 07:55:35 AM 40.7631 -76.9031 281° West 362 417 30,000  Level New York Center
Tue 07:56:35 AM 40.7808 -77.0361 280° West 374 430 30,000  Level New York Center
Tue 07:57:36 AM 40.7989 -77.1667 280° West 374 430 30,000  Level New York Center
Tue 07:58:37 AM 40.8172 -77.2919 281° West 363 418 30,000  Level New York Center
Tue 07:59:35 AM 40.8342 -77.3978 282° West 341 392 30,000  Level New York Center
Tue 08:00:34 AM 40.8503 -77.5172 280° West 336 387 30,000  Level New York Center
Tue 08:02:51 AM 40.8903 -77.8117 280° West 335 386 30,000  Level Cleveland Center
Tue 08:03:51 AM 40.9081 -77.9483 280° West 360 414 30,000  Level Cleveland Center
Tue 08:04:51 AM 40.9300 -78.0847 282° West 376 433 30,000  Level Cleveland Center
Tue 08:05:51 AM 40.9539 -78.2269 283° West 387 445 30,000  Level Cleveland Center
Tue 08:06:51 AM 40.9817 -78.3717 284° West 400 460 30,000  Level Cleveland Center
Tue 08:07:51 AM 41.0011 -78.5142 280° West 400 460 30,000  Level Cleveland Center
Tue 08:08:51 AM 40.9892 -78.6603 264° West 400 460 30,000  Level Cleveland Center
Tue 08:09:51 AM 40.9769 -78.8036 264° West 400 460 30,000  Level Cleveland Center
Tue 08:10:51 AM 40.9664 -78.9414 264° West 400 460 30,000  Level Cleveland Center
Tue 08:11:51 AM 40.9558 -79.0847 264° West 395 455 30,000  Level Cleveland Center
Tue 08:12:51 AM 40.9431 -79.2306 263° West 395 455 30,000 -450 Level Cleveland Center
Tue 08:13:51 AM 40.9322 -79.3739 264° West 395 455 29,100 -1,000 Descending Cleveland Center
Tue 08:14:51 AM 40.9189 -79.5114 263° West 395 455 28,000 -1,050 Descending Cleveland Center
Tue 08:15:51 AM 40.9075 -79.6436 264° West 387 445 27,000 -1,050 Descending Cleveland Center
Tue 08:16:51 AM 40.8981 -79.7756 265° West 371 427 25,900 -1,050 Descending Cleveland Center
Tue 08:17:51 AM 40.8864 -79.9047 263° West 366 421 24,900 -1,000 Descending Cleveland Center
Tue 08:18:51 AM 40.8747 -80.0339 263° West 366 421 23,900 -900 Descending Cleveland Center
Tue 08:19:51 AM 40.8606 -80.1714 262° West 366 421 23,100 -650 Descending Cleveland Center
Tue 08:20:51 AM 40.8506 -80.2975 264° West 367 422 22,600 -550 Descending Cleveland Center
Tue 08:21:51 AM 40.8383 -80.4131 262° West 362 417 22,000 -300 Descending Cleveland Center
Tue 08:22:51 AM 40.8258 -80.5528 263° West 362 417 22,000  Level Cleveland Center
Tue 08:23:51 AM 40.8133 -80.6900 263° West 368 423 22,000 -200 Level Cleveland Center
Tue 08:24:51 AM 40.8069 -80.8053 266° West 368 423 21,600 -900 Descending Cleveland Center
Tue 08:25:51 AM 40.8214 -80.9178 280° West 345 397 20,200 -1,600 Descending Cleveland Center
Tue 08:26:51 AM 40.8375 -81.0250 281° West 318 366 18,400 -1,900 Descending Cleveland Center
Tue 08:27:51 AM 40.8539 -81.1403 281° West 296 341 16,400 -1,750 Descending Cleveland Center
Tue 08:28:51 AM 40.8678 -81.2311 281° West 275 316 14,900 -1,590 Descending Cleveland Center
Tue 08:29:48 AM 40.8800 -81.3136 281° West 242 278 13,300 -1,550 Descending Cleveland Center
Tue 08:30:51 AM 40.8919 -81.3961 281° West 247 284 11,800 -1,587 Descending Cleveland Center
Tue 08:31:49 AM 40.9036 -81.4786 281° West 227 261 10,100 -864 Descending Cleveland Center
Tue 08:32:56 AM 40.9806 -81.5264 335° Northwest 307 353 10,000 -47 Descending Cleveland Center
Tue 08:33:57 AM 41.0700 -81.5525 348° North 334 384 10,000 -313 Level Cleveland Center
Tue 08:34:51 AM 41.1364 -81.5700 349° North 300 345 9,400 -1,240 Descending Cleveland Center
Tue 08:35:58 AM 41.2217 -81.5961 347° North 265 305 7,500 -1,750 Descending Cleveland Center
Tue 08:36:51 AM 41.2800 -81.6111 349° North 263 303 5,900 -1,937 Descending Cleveland Center
Tue 08:38:05 AM 41.3672 -81.6372 347° North 239 275 3,400 -1,184 Descending Cleveland Center
Tue 08:39:18 AM 41.4336 -81.6772 336° Northwest 205 236 3,000 -189 Descending Cleveland Center
Tue 08:40:12 AM 41.4706 -81.7219 318° Northwest 182 209 3,000  Level Cleveland Center

Login

Don't have an account? Register now (free) for customized features, flight alerts, and more!